sensor_id;sensor_type;location;lat;lon;timestamp;temperature;humidity
27188;DHT22;14708;50.872;5.306;2023-11-19T00:00:55;22.60;59.10
27188;DHT22;14708;50.872;5.306;2023-11-19T00:03:26;22.60;59.30
27188;DHT22;14708;50.872;5.306;2023-11-19T00:05:51;22.50;59.20
27188;DHT22;14708;50.872;5.306;2023-11-19T00:08:20;22.50;59.20
27188;DHT22;14708;50.872;5.306;2023-11-19T00:10:46;22.50;59.00
27188;DHT22;14708;50.872;5.306;2023-11-19T00:13:11;22.50;59.10
27188;DHT22;14708;50.872;5.306;2023-11-19T00:15:37;22.50;59.20
27188;DHT22;14708;50.872;5.306;2023-11-19T00:18:04;22.50;59.20
27188;DHT22;14708;50.872;5.306;2023-11-19T00:20:31;22.40;59.20
27188;DHT22;14708;50.872;5.306;2023-11-19T00:22:57;22.40;59.20
27188;DHT22;14708;50.872;5.306;2023-11-19T00:25:23;22.40;59.30
27188;DHT22;14708;50.872;5.306;2023-11-19T00:27:49;22.40;59.30
27188;DHT22;14708;50.872;5.306;2023-11-19T00:30:16;22.40;59.30
27188;DHT22;14708;50.872;5.306;2023-11-19T00:32:42;22.40;59.40
27188;DHT22;14708;50.872;5.306;2023-11-19T00:35:09;22.30;59.30
27188;DHT22;14708;50.872;5.306;2023-11-19T00:37:41;22.30;59.10
27188;DHT22;14708;50.872;5.306;2023-11-19T00:40:11;22.30;59.10
27188;DHT22;14708;50.872;5.306;2023-11-19T00:42:37;22.30;59.20
27188;DHT22;14708;50.872;5.306;2023-11-19T00:45:03;22.30;59.30
27188;DHT22;14708;50.872;5.306;2023-11-19T00:47:30;22.30;59.40
27188;DHT22;14708;50.872;5.306;2023-11-19T00:49:56;22.30;59.40
27188;DHT22;14708;50.872;5.306;2023-11-19T00:52:22;22.20;59.20
27188;DHT22;14708;50.872;5.306;2023-11-19T00:54:47;22.20;59.20
27188;DHT22;14708;50.872;5.306;2023-11-19T00:57:14;22.20;59.20
27188;DHT22;14708;50.872;5.306;2023-11-19T00:59:43;22.20;59.10
27188;DHT22;14708;50.872;5.306;2023-11-19T01:02:09;22.20;59.10
27188;DHT22;14708;50.872;5.306;2023-11-19T01:04:35;22.20;59.30
27188;DHT22;14708;50.872;5.306;2023-11-19T01:07:02;22.20;59.20
27188;DHT22;14708;50.872;5.306;2023-11-19T01:09:30;22.20;59.10
27188;DHT22;14708;50.872;5.306;2023-11-19T01:11:58;22.10;59.30
27188;DHT22;14708;50.872;5.306;2023-11-19T01:14:23;22.10;59.30
27188;DHT22;14708;50.872;5.306;2023-11-19T01:16:50;22.10;59.30
27188;DHT22;14708;50.872;5.306;2023-11-19T01:19:16;22.10;59.20
27188;DHT22;14708;50.872;5.306;2023-11-19T01:21:50;22.10;59.40
27188;DHT22;14708;50.872;5.306;2023-11-19T01:24:15;22.10;59.40
27188;DHT22;14708;50.872;5.306;2023-11-19T01:26:43;22.10;59.40
27188;DHT22;14708;50.872;5.306;2023-11-19T01:29:14;22.10;59.30
27188;DHT22;14708;50.872;5.306;2023-11-19T01:31:42;22.10;59.40
27188;DHT22;14708;50.872;5.306;2023-11-19T01:34:08;22.00;59.30
27188;DHT22;14708;50.872;5.306;2023-11-19T01:36:34;22.00;59.30
27188;DHT22;14708;50.872;5.306;2023-11-19T01:39:00;22.00;59.60
27188;DHT22;14708;50.872;5.306;2023-11-19T01:41:27;22.00;59.40
27188;DHT22;14708;50.872;5.306;2023-11-19T01:43:56;22.00;59.50
27188;DHT22;14708;50.872;5.306;2023-11-19T01:46:24;22.00;59.40
27188;DHT22;14708;50.872;5.306;2023-11-19T01:48:51;22.00;59.40
27188;DHT22;14708;50.872;5.306;2023-11-19T01:51:16;22.00;59.40
27188;DHT22;14708;50.872;5.306;2023-11-19T01:54:02;22.00;59.50
27188;DHT22;14708;50.872;5.306;2023-11-19T01:56:28;21.90;59.50
27188;DHT22;14708;50.872;5.306;2023-11-19T01:58:56;21.90;59.50
27188;DHT22;14708;50.872;5.306;2023-11-19T02:01:24;21.90;59.60
27188;DHT22;14708;50.872;5.306;2023-11-19T02:03:49;21.90;59.50
27188;DHT22;14708;50.872;5.306;2023-11-19T02:06:17;21.90;59.60
27188;DHT22;14708;50.872;5.306;2023-11-19T02:08:43;21.90;59.50
27188;DHT22;14708;50.872;5.306;2023-11-19T02:11:10;21.90;59.50
27188;DHT22;14708;50.872;5.306;2023-11-19T02:13:37;21.90;59.40
27188;DHT22;14708;50.872;5.306;2023-11-19T02:16:04;21.90;59.40
27188;DHT22;14708;50.872;5.306;2023-11-19T02:18:31;21.90;59.60
27188;DHT22;14708;50.872;5.306;2023-11-19T02:20:58;21.90;59.60
27188;DHT22;14708;50.872;5.306;2023-11-19T02:23:30;21.90;59.60
27188;DHT22;14708;50.872;5.306;2023-11-19T02:29:01;21.90;59.50
27188;DHT22;14708;50.872;5.306;2023-11-19T02:31:27;21.80;59.50
27188;DHT22;14708;50.872;5.306;2023-11-19T02:33:52;21.80;59.60
27188;DHT22;14708;50.872;5.306;2023-11-19T02:36:18;21.80;59.60
27188;DHT22;14708;50.872;5.306;2023-11-19T02:38:49;21.80;59.60
27188;DHT22;14708;50.872;5.306;2023-11-19T02:41:19;21.80;59.70
27188;DHT22;14708;50.872;5.306;2023-11-19T02:43:44;21.80;59.70
27188;DHT22;14708;50.872;5.306;2023-11-19T02:46:10;21.80;59.80
27188;DHT22;14708;50.872;5.306;2023-11-19T02:48:39;21.80;59.80
27188;DHT22;14708;50.872;5.306;2023-11-19T02:51:06;21.80;59.70
27188;DHT22;14708;50.872;5.306;2023-11-19T02:53:35;21.80;59.60
27188;DHT22;14708;50.872;5.306;2023-11-19T02:56:00;21.70;59.60
27188;DHT22;14708;50.872;5.306;2023-11-19T02:58:31;21.70;59.60
27188;DHT22;14708;50.872;5.306;2023-11-19T03:00:58;21.70;59.60
27188;DHT22;14708;50.872;5.306;2023-11-19T03:03:25;21.70;59.50
27188;DHT22;14708;50.872;5.306;2023-11-19T03:05:57;21.80;59.50
27188;DHT22;14708;50.872;5.306;2023-11-19T03:08:22;21.70;59.30
27188;DHT22;14708;50.872;5.306;2023-11-19T03:10:48;21.70;59.40
27188;DHT22;14708;50.872;5.306;2023-11-19T03:13:15;21.70;59.60
27188;DHT22;14708;50.872;5.306;2023-11-19T03:15:42;21.70;59.50
27188;DHT22;14708;50.872;5.306;2023-11-19T03:18:15;21.70;59.60
27188;DHT22;14708;50.872;5.306;2023-11-19T03:20:42;21.70;59.60
27188;DHT22;14708;50.872;5.306;2023-11-19T03:23:08;21.70;59.40
27188;DHT22;14708;50.872;5.306;2023-11-19T03:25:33;21.70;59.50
27188;DHT22;14708;50.872;5.306;2023-11-19T03:28:04;21.60;59.30
27188;DHT22;14708;50.872;5.306;2023-11-19T03:30:30;21.70;59.40
27188;DHT22;14708;50.872;5.306;2023-11-19T03:32:57;21.60;59.40
27188;DHT22;14708;50.872;5.306;2023-11-19T03:35:25;21.60;59.50
27188;DHT22;14708;50.872;5.306;2023-11-19T03:37:51;21.60;59.50
27188;DHT22;14708;50.872;5.306;2023-11-19T03:40:18;21.60;59.50
27188;DHT22;14708;50.872;5.306;2023-11-19T03:42:47;21.60;59.50
27188;DHT22;14708;50.872;5.306;2023-11-19T03:45:13;21.60;59.50
27188;DHT22;14708;50.872;5.306;2023-11-19T03:47:40;21.60;59.60
27188;DHT22;14708;50.872;5.306;2023-11-19T03:50:06;21.60;59.60
27188;DHT22;14708;50.872;5.306;2023-11-19T03:52:33;21.60;59.50
27188;DHT22;14708;50.872;5.306;2023-11-19T03:55:01;21.60;59.40
27188;DHT22;14708;50.872;5.306;2023-11-19T03:57:31;21.60;59.50
27188;DHT22;14708;50.872;5.306;2023-11-19T03:59:56;21.60;59.40
27188;DHT22;14708;50.872;5.306;2023-11-19T04:02:25;21.60;59.40
27188;DHT22;14708;50.872;5.306;2023-11-19T04:04:53;21.60;59.40
27188;DHT22;14708;50.872;5.306;2023-11-19T04:07:20;21.60;59.40
27188;DHT22;14708;50.872;5.306;2023-11-19T04:09:46;21.60;59.50
27188;DHT22;14708;50.872;5.306;2023-11-19T04:12:12;21.60;59.50
27188;DHT22;14708;50.872;5.306;2023-11-19T04:14:38;21.50;59.50
27188;DHT22;14708;50.872;5.306;2023-11-19T04:17:06;21.50;59.40
27188;DHT22;14708;50.872;5.306;2023-11-19T04:19:31;21.50;59.40
27188;DHT22;14708;50.872;5.306;2023-11-19T04:21:58;21.50;59.40
27188;DHT22;14708;50.872;5.306;2023-11-19T04:24:25;21.50;59.50
27188;DHT22;14708;50.872;5.306;2023-11-19T04:26:54;21.50;59.50
27188;DHT22;14708;50.872;5.306;2023-11-19T04:29:20;21.50;59.70
27188;DHT22;14708;50.872;5.306;2023-11-19T04:31:45;21.50;59.60
27188;DHT22;14708;50.872;5.306;2023-11-19T04:34:11;21.50;59.60
27188;DHT22;14708;50.872;5.306;2023-11-19T04:36:39;21.50;59.60
27188;DHT22;14708;50.872;5.306;2023-11-19T04:39:05;21.50;59.60
27188;DHT22;14708;50.872;5.306;2023-11-19T04:41:51;21.50;59.70
27188;DHT22;14708;50.872;5.306;2023-11-19T04:44:19;21.50;59.60
27188;DHT22;14708;50.872;5.306;2023-11-19T04:46:47;21.50;59.70
27188;DHT22;14708;50.872;5.306;2023-11-19T04:49:13;21.50;59.60
27188;DHT22;14708;50.872;5.306;2023-11-19T04:51:43;21.40;59.50
27188;DHT22;14708;50.872;5.306;2023-11-19T04:54:10;21.40;59.50
27188;DHT22;14708;50.872;5.306;2023-11-19T04:56:37;21.40;59.50
27188;DHT22;14708;50.872;5.306;2023-11-19T04:59:04;21.40;59.50
27188;DHT22;14708;50.872;5.306;2023-11-19T05:01:31;21.40;59.50
27188;DHT22;14708;50.872;5.306;2023-11-19T05:04:00;21.40;59.40
27188;DHT22;14708;50.872;5.306;2023-11-19T05:06:30;21.40;59.50
27188;DHT22;14708;50.872;5.306;2023-11-19T05:09:00;21.40;59.50
27188;DHT22;14708;50.872;5.306;2023-11-19T05:11:26;21.40;59.60
27188;DHT22;14708;50.872;5.306;2023-11-19T05:13:54;21.40;59.50
27188;DHT22;14708;50.872;5.306;2023-11-19T05:16:19;21.40;60.00
27188;DHT22;14708;50.872;5.306;2023-11-19T05:18:47;21.40;59.40
27188;DHT22;14708;50.872;5.306;2023-11-19T05:21:15;21.40;59.40
27188;DHT22;14708;50.872;5.306;2023-11-19T05:23:43;21.40;59.50
27188;DHT22;14708;50.872;5.306;2023-11-19T05:26:16;21.40;59.40
27188;DHT22;14708;50.872;5.306;2023-11-19T05:28:44;21.30;59.30
27188;DHT22;14708;50.872;5.306;2023-11-19T05:31:09;21.30;59.40
27188;DHT22;14708;50.872;5.306;2023-11-19T05:33:35;21.30;59.40
27188;DHT22;14708;50.872;5.306;2023-11-19T05:36:00;21.30;59.50
27188;DHT22;14708;50.872;5.306;2023-11-19T05:38:29;21.30;59.40
27188;DHT22;14708;50.872;5.306;2023-11-19T05:40:54;21.30;59.60
27188;DHT22;14708;50.872;5.306;2023-11-19T05:43:20;21.30;59.30
27188;DHT22;14708;50.872;5.306;2023-11-19T05:45:47;21.30;60.10
27188;DHT22;14708;50.872;5.306;2023-11-19T05:48:13;21.30;59.20
27188;DHT22;14708;50.872;5.306;2023-11-19T05:50:39;21.30;59.30
27188;DHT22;14708;50.872;5.306;2023-11-19T05:53:05;21.30;59.30
27188;DHT22;14708;50.872;5.306;2023-11-19T05:55:39;21.30;59.30
27188;DHT22;14708;50.872;5.306;2023-11-19T05:58:22;21.30;59.30
27188;DHT22;14708;50.872;5.306;2023-11-19T06:00:51;21.30;59.40
27188;DHT22;14708;50.872;5.306;2023-11-19T06:03:17;21.30;59.50
27188;DHT22;14708;50.872;5.306;2023-11-19T06:05:47;21.30;59.50
27188;DHT22;14708;50.872;5.306;2023-11-19T06:08:14;21.30;59.40
27188;DHT22;14708;50.872;5.306;2023-11-19T06:10:41;21.30;59.40
27188;DHT22;14708;50.872;5.306;2023-11-19T06:13:07;21.30;59.40
27188;DHT22;14708;50.872;5.306;2023-11-19T06:15:35;21.20;59.30
27188;DHT22;14708;50.872;5.306;2023-11-19T06:18:01;21.20;59.50
27188;DHT22;14708;50.872;5.306;2023-11-19T06:20:29;21.20;59.50
27188;DHT22;14708;50.872;5.306;2023-11-19T06:22:56;21.20;59.40
27188;DHT22;14708;50.872;5.306;2023-11-19T06:25:22;21.20;59.40
27188;DHT22;14708;50.872;5.306;2023-11-19T06:27:49;21.20;59.60
27188;DHT22;14708;50.872;5.306;2023-11-19T06:30:17;21.20;59.40
27188;DHT22;14708;50.872;5.306;2023-11-19T06:32:44;21.20;59.50
27188;DHT22;14708;50.872;5.306;2023-11-19T06:35:09;21.20;59.40
27188;DHT22;14708;50.872;5.306;2023-11-19T06:37:38;21.20;59.50
27188;DHT22;14708;50.872;5.306;2023-11-19T06:40:04;21.20;59.30
27188;DHT22;14708;50.872;5.306;2023-11-19T06:42:34;21.20;59.40
27188;DHT22;14708;50.872;5.306;2023-11-19T06:45:00;21.20;59.40
27188;DHT22;14708;50.872;5.306;2023-11-19T06:47:29;21.20;59.50
27188;DHT22;14708;50.872;5.306;2023-11-19T06:49:55;21.20;59.50
27188;DHT22;14708;50.872;5.306;2023-11-19T06:52:21;21.20;59.60
27188;DHT22;14708;50.872;5.306;2023-11-19T06:54:47;21.20;59.40
27188;DHT22;14708;50.872;5.306;2023-11-19T06:57:13;21.20;59.40
27188;DHT22;14708;50.872;5.306;2023-11-19T06:59:39;21.20;59.50
27188;DHT22;14708;50.872;5.306;2023-11-19T07:02:06;21.20;59.40
27188;DHT22;14708;50.872;5.306;2023-11-19T07:04:32;21.10;59.30
27188;DHT22;14708;50.872;5.306;2023-11-19T07:07:01;21.10;59.40
27188;DHT22;14708;50.872;5.306;2023-11-19T07:09:27;21.10;60.30
27188;DHT22;14708;50.872;5.306;2023-11-19T07:11:55;21.20;59.80
27188;DHT22;14708;50.872;5.306;2023-11-19T07:14:21;21.20;59.70
27188;DHT22;14708;50.872;5.306;2023-11-19T07:16:50;21.20;59.70
27188;DHT22;14708;50.872;5.306;2023-11-19T07:19:17;21.20;59.70
27188;DHT22;14708;50.872;5.306;2023-11-19T07:22:18;21.20;59.50
27188;DHT22;14708;50.872;5.306;2023-11-19T07:25:05;21.30;59.60
27188;DHT22;14708;50.872;5.306;2023-11-19T07:27:30;21.30;59.50
27188;DHT22;14708;50.872;5.306;2023-11-19T07:32:52;21.40;59.90
27188;DHT22;14708;50.872;5.306;2023-11-19T07:35:24;21.40;59.70
27188;DHT22;14708;50.872;5.306;2023-11-19T07:37:52;21.40;59.70
27188;DHT22;14708;50.872;5.306;2023-11-19T07:40:18;21.50;59.80
27188;DHT22;14708;50.872;5.306;2023-11-19T07:43:26;21.50;59.70
27188;DHT22;14708;50.872;5.306;2023-11-19T07:51:02;21.50;60.00
27188;DHT22;14708;50.872;5.306;2023-11-19T07:53:28;21.50;60.00
27188;DHT22;14708;50.872;5.306;2023-11-19T07:55:54;21.50;60.30
27188;DHT22;14708;50.872;5.306;2023-11-19T07:58:20;21.50;60.30
27188;DHT22;14708;50.872;5.306;2023-11-19T08:00:47;21.50;60.50
27188;DHT22;14708;50.872;5.306;2023-11-19T08:03:13;21.50;60.60
27188;DHT22;14708;50.872;5.306;2023-11-19T08:05:40;21.50;60.60
27188;DHT22;14708;50.872;5.306;2023-11-19T08:08:05;21.50;60.90
27188;DHT22;14708;50.872;5.306;2023-11-19T08:10:32;21.50;60.70
27188;DHT22;14708;50.872;5.306;2023-11-19T08:12:58;21.50;60.70
27188;DHT22;14708;50.872;5.306;2023-11-19T08:15:24;21.50;60.70
27188;DHT22;14708;50.872;5.306;2023-11-19T08:17:49;21.50;60.70
27188;DHT22;14708;50.872;5.306;2023-11-19T08:20:16;21.50;60.70
27188;DHT22;14708;50.872;5.306;2023-11-19T08:22:42;21.50;60.90
27188;DHT22;14708;50.872;5.306;2023-11-19T08:25:08;21.50;60.90
27188;DHT22;14708;50.872;5.306;2023-11-19T08:27:33;21.50;60.80
27188;DHT22;14708;50.872;5.306;2023-11-19T08:29:59;21.50;60.90
27188;DHT22;14708;50.872;5.306;2023-11-19T08:32:28;21.50;60.90
27188;DHT22;14708;50.872;5.306;2023-11-19T08:34:54;21.50;61.00
27188;DHT22;14708;50.872;5.306;2023-11-19T08:37:20;21.50;60.50
27188;DHT22;14708;50.872;5.306;2023-11-19T08:39:48;21.50;60.40
27188;DHT22;14708;50.872;5.306;2023-11-19T08:42:13;21.50;60.40
27188;DHT22;14708;50.872;5.306;2023-11-19T08:44:39;21.60;60.60
27188;DHT22;14708;50.872;5.306;2023-11-19T08:47:11;21.60;60.30
27188;DHT22;14708;50.872;5.306;2023-11-19T08:49:36;21.60;60.50
27188;DHT22;14708;50.872;5.306;2023-11-19T08:52:02;21.60;60.20
27188;DHT22;14708;50.872;5.306;2023-11-19T08:54:28;21.60;60.00
27188;DHT22;14708;50.872;5.306;2023-11-19T08:56:53;21.60;60.00
27188;DHT22;14708;50.872;5.306;2023-11-19T08:59:19;21.60;60.10
27188;DHT22;14708;50.872;5.306;2023-11-19T09:01:45;21.60;60.10
27188;DHT22;14708;50.872;5.306;2023-11-19T09:04:11;21.60;59.50
27188;DHT22;14708;50.872;5.306;2023-11-19T09:06:36;21.60;59.70
27188;DHT22;14708;50.872;5.306;2023-11-19T09:09:02;21.60;59.40
27188;DHT22;14708;50.872;5.306;2023-11-19T09:11:29;21.60;58.80
27188;DHT22;14708;50.872;5.306;2023-11-19T09:13:55;21.60;58.70
27188;DHT22;14708;50.872;5.306;2023-11-19T09:16:21;21.60;58.60
27188;DHT22;14708;50.872;5.306;2023-11-19T09:18:47;21.60;58.80
27188;DHT22;14708;50.872;5.306;2023-11-19T09:21:12;21.60;58.80
27188;DHT22;14708;50.872;5.306;2023-11-19T09:23:38;21.70;59.20
27188;DHT22;14708;50.872;5.306;2023-11-19T09:26:08;21.60;59.00
27188;DHT22;14708;50.872;5.306;2023-11-19T09:28:36;21.60;58.90
27188;DHT22;14708;50.872;5.306;2023-11-19T09:31:01;21.60;58.70
27188;DHT22;14708;50.872;5.306;2023-11-19T09:33:30;21.60;58.90
27188;DHT22;14708;50.872;5.306;2023-11-19T09:35:56;21.60;58.50
27188;DHT22;14708;50.872;5.306;2023-11-19T09:38:21;21.60;58.40
27188;DHT22;14708;50.872;5.306;2023-11-19T09:40:47;21.60;58.20
27188;DHT22;14708;50.872;5.306;2023-11-19T09:43:15;21.60;58.90
27188;DHT22;14708;50.872;5.306;2023-11-19T09:45:50;21.60;58.20
27188;DHT22;14708;50.872;5.306;2023-11-19T09:48:17;21.60;57.80
27188;DHT22;14708;50.872;5.306;2023-11-19T09:50:47;21.60;58.20
27188;DHT22;14708;50.872;5.306;2023-11-19T09:53:14;21.60;58.30
27188;DHT22;14708;50.872;5.306;2023-11-19T09:55:41;21.60;57.90
27188;DHT22;14708;50.872;5.306;2023-11-19T09:58:07;21.60;58.10
27188;DHT22;14708;50.872;5.306;2023-11-19T10:00:34;21.60;58.00
27188;DHT22;14708;50.872;5.306;2023-11-19T10:03:00;21.60;57.70
27188;DHT22;14708;50.872;5.306;2023-11-19T10:05:26;21.60;57.80
27188;DHT22;14708;50.872;5.306;2023-11-19T10:07:52;21.60;57.40
27188;DHT22;14708;50.872;5.306;2023-11-19T10:10:19;21.60;57.20
27188;DHT22;14708;50.872;5.306;2023-11-19T10:12:46;21.60;55.70
27188;DHT22;14708;50.872;5.306;2023-11-19T10:15:20;21.50;55.30
27188;DHT22;14708;50.872;5.306;2023-11-19T10:17:47;21.60;56.00
27188;DHT22;14708;50.872;5.306;2023-11-19T10:20:13;21.60;56.50
27188;DHT22;14708;50.872;5.306;2023-11-19T10:22:39;21.60;56.50
27188;DHT22;14708;50.872;5.306;2023-11-19T10:25:26;21.60;56.50
27188;DHT22;14708;50.872;5.306;2023-11-19T10:27:52;21.60;56.30
27188;DHT22;14708;50.872;5.306;2023-11-19T10:30:22;21.60;55.40
27188;DHT22;14708;50.872;5.306;2023-11-19T10:35:58;21.70;54.90
27188;DHT22;14708;50.872;5.306;2023-11-19T10:38:27;21.60;55.00
27188;DHT22;14708;50.872;5.306;2023-11-19T10:40:54;21.70;55.30
27188;DHT22;14708;50.872;5.306;2023-11-19T10:43:20;21.60;55.30
27188;DHT22;14708;50.872;5.306;2023-11-19T10:45:50;21.60;54.90
27188;DHT22;14708;50.872;5.306;2023-11-19T10:48:16;21.60;55.10
27188;DHT22;14708;50.872;5.306;2023-11-19T10:50:43;21.70;55.50
27188;DHT22;14708;50.872;5.306;2023-11-19T10:53:13;21.60;56.20
27188;DHT22;14708;50.872;5.306;2023-11-19T10:55:39;21.60;55.70
27188;DHT22;14708;50.872;5.306;2023-11-19T10:58:05;21.60;55.30
27188;DHT22;14708;50.872;5.306;2023-11-19T11:00:52;21.60;55.80
27188;DHT22;14708;50.872;5.306;2023-11-19T11:03:20;21.60;55.70
27188;DHT22;14708;50.872;5.306;2023-11-19T11:05:47;21.60;55.90
27188;DHT22;14708;50.872;5.306;2023-11-19T11:08:13;21.60;55.70
27188;DHT22;14708;50.872;5.306;2023-11-19T11:10:48;21.60;55.80
27188;DHT22;14708;50.872;5.306;2023-11-19T11:13:18;21.60;56.00
27188;DHT22;14708;50.872;5.306;2023-11-19T11:16:04;21.60;56.20
27188;DHT22;14708;50.872;5.306;2023-11-19T11:18:32;21.60;57.40
27188;DHT22;14708;50.872;5.306;2023-11-19T11:21:09;21.60;57.90
27188;DHT22;14708;50.872;5.306;2023-11-19T11:27:01;21.60;58.10
27188;DHT22;14708;50.872;5.306;2023-11-19T11:32:16;21.60;57.60
27188;DHT22;14708;50.872;5.306;2023-11-19T11:38:00;21.70;57.60
27188;DHT22;14708;50.872;5.306;2023-11-19T11:40:26;21.70;57.80
27188;DHT22;14708;50.872;5.306;2023-11-19T11:42:52;21.70;57.50
27188;DHT22;14708;50.872;5.306;2023-11-19T11:45:18;21.70;57.60
27188;DHT22;14708;50.872;5.306;2023-11-19T11:50:20;21.80;57.70
27188;DHT22;14708;50.872;5.306;2023-11-19T11:58:19;21.80;57.80
27188;DHT22;14708;50.872;5.306;2023-11-19T12:00:47;21.80;57.80
27188;DHT22;14708;50.872;5.306;2023-11-19T12:03:13;21.80;57.20
27188;DHT22;14708;50.872;5.306;2023-11-19T12:05:48;21.80;56.70
27188;DHT22;14708;50.872;5.306;2023-11-19T12:08:19;21.80;56.90
27188;DHT22;14708;50.872;5.306;2023-11-19T12:10:52;21.80;57.30
27188;DHT22;14708;50.872;5.306;2023-11-19T12:13:19;21.80;57.70
27188;DHT22;14708;50.872;5.306;2023-11-19T12:16:07;21.80;57.40
27188;DHT22;14708;50.872;5.306;2023-11-19T12:18:33;21.80;57.50
27188;DHT22;14708;50.872;5.306;2023-11-19T12:21:03;21.80;57.50
27188;DHT22;14708;50.872;5.306;2023-11-19T12:23:31;21.90;57.50
27188;DHT22;14708;50.872;5.306;2023-11-19T12:33:43;21.90;57.60
27188;DHT22;14708;50.872;5.306;2023-11-19T12:36:09;22.00;57.60
27188;DHT22;14708;50.872;5.306;2023-11-19T12:38:36;22.00;57.80
27188;DHT22;14708;50.872;5.306;2023-11-19T12:41:08;22.00;57.70
27188;DHT22;14708;50.872;5.306;2023-11-19T12:43:37;22.00;57.70
27188;DHT22;14708;50.872;5.306;2023-11-19T12:46:21;22.10;57.70
27188;DHT22;14708;50.872;5.306;2023-11-19T12:48:51;22.10;57.60
27188;DHT22;14708;50.872;5.306;2023-11-19T12:51:16;22.10;57.50
27188;DHT22;14708;50.872;5.306;2023-11-19T12:53:53;22.10;57.60
27188;DHT22;14708;50.872;5.306;2023-11-19T12:56:23;22.10;57.70
27188;DHT22;14708;50.872;5.306;2023-11-19T12:58:50;22.10;57.50
27188;DHT22;14708;50.872;5.306;2023-11-19T13:01:20;22.10;57.50
27188;DHT22;14708;50.872;5.306;2023-11-19T13:04:04;22.10;57.70
27188;DHT22;14708;50.872;5.306;2023-11-19T13:06:32;22.10;57.80
27188;DHT22;14708;50.872;5.306;2023-11-19T13:08:57;22.10;57.70
27188;DHT22;14708;50.872;5.306;2023-11-19T13:11:35;22.10;57.90
27188;DHT22;14708;50.872;5.306;2023-11-19T13:14:04;22.10;57.60
27188;DHT22;14708;50.872;5.306;2023-11-19T13:16:31;22.10;57.80
27188;DHT22;14708;50.872;5.306;2023-11-19T13:18:57;22.10;57.90
27188;DHT22;14708;50.872;5.306;2023-11-19T13:21:23;22.10;58.30
27188;DHT22;14708;50.872;5.306;2023-11-19T13:23:49;22.10;57.60
27188;DHT22;14708;50.872;5.306;2023-11-19T13:26:15;22.20;57.60
27188;DHT22;14708;50.872;5.306;2023-11-19T13:28:43;22.20;57.50
27188;DHT22;14708;50.872;5.306;2023-11-19T13:31:13;22.20;57.50
27188;DHT22;14708;50.872;5.306;2023-11-19T13:33:39;22.20;57.60
27188;DHT22;14708;50.872;5.306;2023-11-19T13:36:05;22.20;57.60
27188;DHT22;14708;50.872;5.306;2023-11-19T13:38:35;22.20;57.70
27188;DHT22;14708;50.872;5.306;2023-11-19T13:41:04;22.20;57.60
27188;DHT22;14708;50.872;5.306;2023-11-19T13:43:30;22.20;57.50
27188;DHT22;14708;50.872;5.306;2023-11-19T13:45:56;22.30;57.50
27188;DHT22;14708;50.872;5.306;2023-11-19T13:48:24;22.30;57.60
27188;DHT22;14708;50.872;5.306;2023-11-19T13:50:50;22.20;57.50
27188;DHT22;14708;50.872;5.306;2023-11-19T13:53:16;22.30;57.60
27188;DHT22;14708;50.872;5.306;2023-11-19T13:55:42;22.30;57.50
27188;DHT22;14708;50.872;5.306;2023-11-19T13:58:08;22.30;57.40
27188;DHT22;14708;50.872;5.306;2023-11-19T14:00:34;22.30;57.50
27188;DHT22;14708;50.872;5.306;2023-11-19T14:03:00;22.30;57.50
27188;DHT22;14708;50.872;5.306;2023-11-19T14:05:26;22.30;57.50
27188;DHT22;14708;50.872;5.306;2023-11-19T14:07:51;22.30;57.50
27188;DHT22;14708;50.872;5.306;2023-11-19T14:10:19;22.30;57.40
27188;DHT22;14708;50.872;5.306;2023-11-19T14:12:48;22.30;57.40
27188;DHT22;14708;50.872;5.306;2023-11-19T14:15:15;22.30;57.30
27188;DHT22;14708;50.872;5.306;2023-11-19T14:17:44;22.30;57.40
27188;DHT22;14708;50.872;5.306;2023-11-19T14:20:20;22.30;57.50
27188;DHT22;14708;50.872;5.306;2023-11-19T14:22:48;22.30;57.10
27188;DHT22;14708;50.872;5.306;2023-11-19T14:25:29;22.30;57.20
27188;DHT22;14708;50.872;5.306;2023-11-19T14:28:51;22.30;57.40
27188;DHT22;14708;50.872;5.306;2023-11-19T14:38:41;22.40;57.30
27188;DHT22;14708;50.872;5.306;2023-11-19T14:41:06;22.40;57.60
27188;DHT22;14708;50.872;5.306;2023-11-19T14:43:33;22.40;57.80
27188;DHT22;14708;50.872;5.306;2023-11-19T14:46:05;22.40;57.80
27188;DHT22;14708;50.872;5.306;2023-11-19T14:48:55;22.40;57.80
27188;DHT22;14708;50.872;5.306;2023-11-19T14:51:23;22.50;57.90
27188;DHT22;14708;50.872;5.306;2023-11-19T14:53:49;22.50;58.10
27188;DHT22;14708;50.872;5.306;2023-11-19T14:56:15;22.50;57.90
27188;DHT22;14708;50.872;5.306;2023-11-19T15:01:48;22.50;58.00
27188;DHT22;14708;50.872;5.306;2023-11-19T15:04:15;22.60;57.90
27188;DHT22;14708;50.872;5.306;2023-11-19T15:06:42;22.60;58.00
27188;DHT22;14708;50.872;5.306;2023-11-19T15:09:12;22.60;58.00
27188;DHT22;14708;50.872;5.306;2023-11-19T15:11:46;22.60;58.30
27188;DHT22;14708;50.872;5.306;2023-11-19T15:14:15;22.70;58.60
27188;DHT22;14708;50.872;5.306;2023-11-19T15:16:57;22.70;58.40
27188;DHT22;14708;50.872;5.306;2023-11-19T15:19:25;22.70;58.40
27188;DHT22;14708;50.872;5.306;2023-11-19T15:21:52;22.80;58.50
27188;DHT22;14708;50.872;5.306;2023-11-19T15:24:25;22.80;58.90
27188;DHT22;14708;50.872;5.306;2023-11-19T15:26:51;22.80;58.90
27188;DHT22;14708;50.872;5.306;2023-11-19T15:29:31;22.90;59.00
27188;DHT22;14708;50.872;5.306;2023-11-19T15:32:14;22.90;59.20
27188;DHT22;14708;50.872;5.306;2023-11-19T15:34:52;22.90;59.30
27188;DHT22;14708;50.872;5.306;2023-11-19T15:37:18;23.00;59.50
27188;DHT22;14708;50.872;5.306;2023-11-19T15:39:50;23.00;59.60
27188;DHT22;14708;50.872;5.306;2023-11-19T15:42:17;23.00;59.40
27188;DHT22;14708;50.872;5.306;2023-11-19T15:45:17;23.00;59.70
27188;DHT22;14708;50.872;5.306;2023-11-19T15:47:55;23.00;59.60
27188;DHT22;14708;50.872;5.306;2023-11-19T15:50:23;23.10;59.60
27188;DHT22;14708;50.872;5.306;2023-11-19T15:52:50;23.10;59.50
27188;DHT22;14708;50.872;5.306;2023-11-19T15:58:10;23.20;59.30
27188;DHT22;14708;50.872;5.306;2023-11-19T16:00:36;23.20;59.80
27188;DHT22;14708;50.872;5.306;2023-11-19T16:03:03;23.20;59.50
27188;DHT22;14708;50.872;5.306;2023-11-19T16:05:37;23.20;59.10
27188;DHT22;14708;50.872;5.306;2023-11-19T16:08:10;23.30;59.30
27188;DHT22;14708;50.872;5.306;2023-11-19T16:10:43;23.30;59.20
27188;DHT22;14708;50.872;5.306;2023-11-19T16:13:23;23.40;59.40
27188;DHT22;14708;50.872;5.306;2023-11-19T16:16:19;23.40;59.30
27188;DHT22;14708;50.872;5.306;2023-11-19T16:19:02;23.40;59.30
27188;DHT22;14708;50.872;5.306;2023-11-19T16:21:32;23.40;59.00
27188;DHT22;14708;50.872;5.306;2023-11-19T16:24:04;23.40;58.20
27188;DHT22;14708;50.872;5.306;2023-11-19T16:27:05;23.40;58.10
27188;DHT22;14708;50.872;5.306;2023-11-19T16:29:33;23.50;57.10
27188;DHT22;14708;50.872;5.306;2023-11-19T16:32:02;23.50;57.80